Kumagaya, Japan

9:16 PM JST on July 26, 2014 (GMT +0900)
Yokota Air Base (RJTY) Elev 456 ft | 35.75 °N, 139.35 °E | Change Station

Current weather conditions updated 18 minutes ago

Clear
Clear
86 °F
Feels Like 98 °F
N
0
Wind Variable Wind from North

Tomorrow is forecast to be Warmer than today. Showers and thunderstorms late.

Today
High -- | Low -- °F
--% Chance of Precip.
Yesterday
High -- | Low -- °F
Precip. -- in
4:44 AM 6:53 PM
Waning Crescent, 0% visible
Pressure 29.81 in
Visibility 10.0 miles
Clouds Clear
Heat Index 98 °F
Dew Point 78 °F
Humidity 76%
Rainfall 0.00 in
Snow Depth Not available.
UV 0 out of 12
Pollen Not available.
Air Quality Not available.
Flu Activity Not available.
METAR RJTY 261158Z AUTO 00000KT 10SM CLR 30/26 A2983 RMK AO2 SLP095 T03010255 10333 20294 58003

More Conditions Fewer Conditions

Pressure 29.81 in
Visibility 10.0 miles
Clouds Clear
Heat Index 98 °F
Dew Point 78 °F
Humidity 76%
Rainfall 0.00 in
Snow Depth Not available.
UV 0 out of 12
Pollen Not available.
Air Quality Not available.
Flu Activity Not available.
METAR RJTY 261158Z AUTO 00000KT 10SM CLR 30/26 A2983 RMK AO2 SLP095 T03010255 10333 20294 58003

More Conditions Fewer Conditions

10-Day Weather Forecast

Almanac

Astronomy

Jul. 26, 2014 Rise Set
Actual Time 4:44 AM JST 6:53 PM JST
Civil Twilight 4:15 AM JST 7:21 PM JST
Nautical Twilight 3:40 AM JST 7:57 PM JST
Astronomical Twilight 3:02 AM JST 8:35 PM JST
Moon 4:01 AM JST 6:06 PM JST
Length of Visible Light 15h 06m
Length of Day
14h 08m
Tomorrow will be 1m 32s shorter.
Waning Crescent, 0% of the Moon is Illuminated
Today
Waning Crescent
Jul 26
New
Aug 3
First Quarter
Aug 10
Full
Aug 17
Last Quarter

Yesterday's Extremes

Country Highs Country Lows

Community

WunderPhotos

Upload Photos

1,737,551 photos uploaded!

Nearby

Snow Depth

Not available.

Earthquake Activity

City Distance Mag. Time & Date
No recent earthquake activity has been reported nearby.
Minimum magnitude displayed is 2.5.

Coastal Water Temperatures

Place Temperature
No Stations Reporting

Nearby Weather Stations

There are no personal weather stations in this area.